sensor_id;sensor_type;location;lat;lon;timestamp;temperature;humidity
5560;DHT22;2803;47.916;8.074;2022-07-23T00:01:00;22.50;99.90
5560;DHT22;2803;47.916;8.074;2022-07-23T00:03:27;23.10;99.90
5560;DHT22;2803;47.916;8.074;2022-07-23T00:05:53;23.60;99.90
5560;DHT22;2803;47.916;8.074;2022-07-23T00:08:20;23.90;99.90
5560;DHT22;2803;47.916;8.074;2022-07-23T00:10:47;24.10;99.90
5560;DHT22;2803;47.916;8.074;2022-07-23T00:13:13;24.30;99.90
5560;DHT22;2803;47.916;8.074;2022-07-23T00:15:41;24.40;99.90
5560;DHT22;2803;47.916;8.074;2022-07-23T00:18:08;24.30;99.90
5560;DHT22;2803;47.916;8.074;2022-07-23T00:20:34;24.20;99.90
5560;DHT22;2803;47.916;8.074;2022-07-23T00:23:01;24.20;99.90
5560;DHT22;2803;47.916;8.074;2022-07-23T00:25:28;24.20;99.90
5560;DHT22;2803;47.916;8.074;2022-07-23T00:27:54;24.10;99.90
5560;DHT22;2803;47.916;8.074;2022-07-23T00:30:21;24.10;99.90
5560;DHT22;2803;47.916;8.074;2022-07-23T00:32:50;24.20;99.90
5560;DHT22;2803;47.916;8.074;2022-07-23T00:35:20;24.00;99.90
5560;DHT22;2803;47.916;8.074;2022-07-23T00:37:47;24.10;99.90
5560;DHT22;2803;47.916;8.074;2022-07-23T00:40:14;23.80;99.90
5560;DHT22;2803;47.916;8.074;2022-07-23T00:42:41;23.20;99.90
5560;DHT22;2803;47.916;8.074;2022-07-23T00:45:08;22.50;99.90
5560;DHT22;2803;47.916;8.074;2022-07-23T00:47:36;22.40;99.90
5560;DHT22;2803;47.916;8.074;2022-07-23T00:50:05;22.30;99.90
5560;DHT22;2803;47.916;8.074;2022-07-23T00:52:33;21.90;99.90
5560;DHT22;2803;47.916;8.074;2022-07-23T00:54:59;21.90;99.90
5560;DHT22;2803;47.916;8.074;2022-07-23T00:57:26;21.60;99.90
5560;DHT22;2803;47.916;8.074;2022-07-23T00:59:53;21.50;99.90
5560;DHT22;2803;47.916;8.074;2022-07-23T01:02:19;21.30;99.90
5560;DHT22;2803;47.916;8.074;2022-07-23T01:04:46;21.50;99.90
5560;DHT22;2803;47.916;8.074;2022-07-23T01:07:15;21.80;99.90
5560;DHT22;2803;47.916;8.074;2022-07-23T01:09:42;21.70;99.90
5560;DHT22;2803;47.916;8.074;2022-07-23T01:12:09;21.60;99.90
5560;DHT22;2803;47.916;8.074;2022-07-23T01:14:36;21.40;99.90
5560;DHT22;2803;47.916;8.074;2022-07-23T01:17:03;21.50;99.90
5560;DHT22;2803;47.916;8.074;2022-07-23T01:19:29;21.50;99.90
5560;DHT22;2803;47.916;8.074;2022-07-23T01:21:57;21.40;99.90
5560;DHT22;2803;47.916;8.074;2022-07-23T01:24:25;21.40;99.90
5560;DHT22;2803;47.916;8.074;2022-07-23T01:26:53;21.00;99.90
5560;DHT22;2803;47.916;8.074;2022-07-23T01:29:19;21.30;99.90
5560;DHT22;2803;47.916;8.074;2022-07-23T01:31:47;21.20;99.90
5560;DHT22;2803;47.916;8.074;2022-07-23T01:34:14;21.60;99.90
5560;DHT22;2803;47.916;8.074;2022-07-23T01:36:41;21.20;99.90
5560;DHT22;2803;47.916;8.074;2022-07-23T01:39:07;21.00;99.90
5560;DHT22;2803;47.916;8.074;2022-07-23T01:41:35;21.30;99.90
5560;DHT22;2803;47.916;8.074;2022-07-23T01:44:02;21.80;99.90
5560;DHT22;2803;47.916;8.074;2022-07-23T01:46:29;21.60;99.90
5560;DHT22;2803;47.916;8.074;2022-07-23T01:48:55;21.30;99.90
5560;DHT22;2803;47.916;8.074;2022-07-23T01:51:22;20.60;99.90
5560;DHT22;2803;47.916;8.074;2022-07-23T01:53:49;20.60;99.90
5560;DHT22;2803;47.916;8.074;2022-07-23T01:56:15;20.80;99.90
5560;DHT22;2803;47.916;8.074;2022-07-23T01:58:45;21.00;99.90
5560;DHT22;2803;47.916;8.074;2022-07-23T02:01:12;21.30;99.90
5560;DHT22;2803;47.916;8.074;2022-07-23T02:03:38;21.00;99.90
5560;DHT22;2803;47.916;8.074;2022-07-23T02:06:05;20.60;99.90
5560;DHT22;2803;47.916;8.074;2022-07-23T02:08:31;20.70;99.90
5560;DHT22;2803;47.916;8.074;2022-07-23T02:10:58;20.70;99.90
5560;DHT22;2803;47.916;8.074;2022-07-23T02:13:25;20.70;99.90
5560;DHT22;2803;47.916;8.074;2022-07-23T02:15:53;20.40;99.90
5560;DHT22;2803;47.916;8.074;2022-07-23T02:18:19;20.80;99.90
5560;DHT22;2803;47.916;8.074;2022-07-23T02:20:46;20.60;99.90
5560;DHT22;2803;47.916;8.074;2022-07-23T02:23:12;20.70;99.90
5560;DHT22;2803;47.916;8.074;2022-07-23T02:25:39;20.70;99.90
5560;DHT22;2803;47.916;8.074;2022-07-23T02:28:06;20.50;99.90
5560;DHT22;2803;47.916;8.074;2022-07-23T02:30:33;20.70;99.90
5560;DHT22;2803;47.916;8.074;2022-07-23T02:33:01;20.90;99.90
5560;DHT22;2803;47.916;8.074;2022-07-23T02:35:27;20.50;99.90
5560;DHT22;2803;47.916;8.074;2022-07-23T02:37:54;20.30;99.90
5560;DHT22;2803;47.916;8.074;2022-07-23T02:40:20;20.40;99.90
5560;DHT22;2803;47.916;8.074;2022-07-23T02:42:47;20.90;99.90
5560;DHT22;2803;47.916;8.074;2022-07-23T02:45:14;20.80;99.90
5560;DHT22;2803;47.916;8.074;2022-07-23T02:47:40;20.90;99.90
5560;DHT22;2803;47.916;8.074;2022-07-23T02:50:08;21.50;99.90
5560;DHT22;2803;47.916;8.074;2022-07-23T02:52:36;21.50;99.90
5560;DHT22;2803;47.916;8.074;2022-07-23T02:55:03;21.00;99.90
5560;DHT22;2803;47.916;8.074;2022-07-23T02:57:29;20.90;99.90
5560;DHT22;2803;47.916;8.074;2022-07-23T02:59:56;21.10;99.90
5560;DHT22;2803;47.916;8.074;2022-07-23T03:02:22;21.00;99.90
5560;DHT22;2803;47.916;8.074;2022-07-23T03:04:49;20.80;99.90
5560;DHT22;2803;47.916;8.074;2022-07-23T03:07:18;20.70;99.90
5560;DHT22;2803;47.916;8.074;2022-07-23T03:09:44;20.60;99.90
5560;DHT22;2803;47.916;8.074;2022-07-23T03:12:11;20.70;99.90
5560;DHT22;2803;47.916;8.074;2022-07-23T03:14:37;21.10;99.90
5560;DHT22;2803;47.916;8.074;2022-07-23T03:17:04;21.70;99.90
5560;DHT22;2803;47.916;8.074;2022-07-23T03:19:31;21.10;99.90
5560;DHT22;2803;47.916;8.074;2022-07-23T03:21:57;21.20;99.90
5560;DHT22;2803;47.916;8.074;2022-07-23T03:24:25;20.80;99.90
5560;DHT22;2803;47.916;8.074;2022-07-23T03:27:12;21.40;99.90
5560;DHT22;2803;47.916;8.074;2022-07-23T03:29:42;21.70;99.90
5560;DHT22;2803;47.916;8.074;2022-07-23T03:32:09;21.80;99.90
5560;DHT22;2803;47.916;8.074;2022-07-23T03:34:36;21.20;99.90
5560;DHT22;2803;47.916;8.074;2022-07-23T03:37:03;21.20;99.90
5560;DHT22;2803;47.916;8.074;2022-07-23T03:39:31;21.00;99.90
5560;DHT22;2803;47.916;8.074;2022-07-23T03:41:57;21.20;99.90
5560;DHT22;2803;47.916;8.074;2022-07-23T03:44:24;21.40;99.90
5560;DHT22;2803;47.916;8.074;2022-07-23T03:46:51;21.20;99.90
5560;DHT22;2803;47.916;8.074;2022-07-23T03:49:17;21.70;99.90
5560;DHT22;2803;47.916;8.074;2022-07-23T03:51:44;21.80;99.90
5560;DHT22;2803;47.916;8.074;2022-07-23T03:54:10;22.00;99.90
5560;DHT22;2803;47.916;8.074;2022-07-23T03:56:38;21.80;99.90
5560;DHT22;2803;47.916;8.074;2022-07-23T03:59:05;21.40;99.90
5560;DHT22;2803;47.916;8.074;2022-07-23T04:01:32;21.40;99.90
5560;DHT22;2803;47.916;8.074;2022-07-23T04:03:58;21.50;99.90
5560;DHT22;2803;47.916;8.074;2022-07-23T04:06:25;20.50;99.90
5560;DHT22;2803;47.916;8.074;2022-07-23T04:08:51;20.90;99.90
5560;DHT22;2803;47.916;8.074;2022-07-23T04:11:18;21.30;99.90
5560;DHT22;2803;47.916;8.074;2022-07-23T04:13:46;21.30;99.90
5560;DHT22;2803;47.916;8.074;2022-07-23T04:16:13;21.00;99.90
5560;DHT22;2803;47.916;8.074;2022-07-23T04:18:39;20.30;99.90
5560;DHT22;2803;47.916;8.074;2022-07-23T04:21:06;20.60;99.90
5560;DHT22;2803;47.916;8.074;2022-07-23T04:23:32;20.80;99.90
5560;DHT22;2803;47.916;8.074;2022-07-23T04:25:59;21.00;99.90
5560;DHT22;2803;47.916;8.074;2022-07-23T04:28:26;21.20;99.90
5560;DHT22;2803;47.916;8.074;2022-07-23T04:30:55;21.20;99.90
5560;DHT22;2803;47.916;8.074;2022-07-23T04:33:22;20.70;99.90
5560;DHT22;2803;47.916;8.074;2022-07-23T04:35:49;20.60;99.90
5560;DHT22;2803;47.916;8.074;2022-07-23T04:38:15;20.90;99.90
5560;DHT22;2803;47.916;8.074;2022-07-23T04:40:42;20.90;99.90
5560;DHT22;2803;47.916;8.074;2022-07-23T04:43:08;20.50;99.90
5560;DHT22;2803;47.916;8.074;2022-07-23T04:45:35;20.40;99.90
5560;DHT22;2803;47.916;8.074;2022-07-23T04:48:03;21.00;99.90
5560;DHT22;2803;47.916;8.074;2022-07-23T04:50:30;21.20;99.90
5560;DHT22;2803;47.916;8.074;2022-07-23T04:52:57;21.60;99.90
5560;DHT22;2803;47.916;8.074;2022-07-23T04:55:23;21.70;99.90
5560;DHT22;2803;47.916;8.074;2022-07-23T04:57:50;21.80;99.90
5560;DHT22;2803;47.916;8.074;2022-07-23T05:00:17;21.40;99.90
5560;DHT22;2803;47.916;8.074;2022-07-23T05:02:43;21.20;99.90
5560;DHT22;2803;47.916;8.074;2022-07-23T05:05:11;21.40;99.90
5560;DHT22;2803;47.916;8.074;2022-07-23T05:07:38;21.70;99.90
5560;DHT22;2803;47.916;8.074;2022-07-23T05:10:05;21.90;99.90
5560;DHT22;2803;47.916;8.074;2022-07-23T05:12:31;21.90;99.90
5560;DHT22;2803;47.916;8.074;2022-07-23T05:14:59;22.10;99.90
5560;DHT22;2803;47.916;8.074;2022-07-23T05:17:25;22.20;99.90
5560;DHT22;2803;47.916;8.074;2022-07-23T05:19:52;22.30;99.90
5560;DHT22;2803;47.916;8.074;2022-07-23T05:22:20;22.40;99.90
5560;DHT22;2803;47.916;8.074;2022-07-23T05:24:46;22.40;99.90
5560;DHT22;2803;47.916;8.074;2022-07-23T05:27:13;22.20;99.90
5560;DHT22;2803;47.916;8.074;2022-07-23T05:29:39;22.20;99.90
5560;DHT22;2803;47.916;8.074;2022-07-23T05:32:06;22.40;99.90
5560;DHT22;2803;47.916;8.074;2022-07-23T05:34:32;22.60;99.90
5560;DHT22;2803;47.916;8.074;2022-07-23T05:36:59;22.10;99.90
5560;DHT22;2803;47.916;8.074;2022-07-23T05:39:27;22.00;99.90
5560;DHT22;2803;47.916;8.074;2022-07-23T05:41:54;22.30;99.90
5560;DHT22;2803;47.916;8.074;2022-07-23T05:44:20;22.50;99.90
5560;DHT22;2803;47.916;8.074;2022-07-23T05:46:47;22.60;99.90
5560;DHT22;2803;47.916;8.074;2022-07-23T05:49:14;22.70;99.90
5560;DHT22;2803;47.916;8.074;2022-07-23T05:51:40;22.80;99.90
5560;DHT22;2803;47.916;8.074;2022-07-23T05:54:07;23.00;99.90
5560;DHT22;2803;47.916;8.074;2022-07-23T05:56:35;23.10;99.90
5560;DHT22;2803;47.916;8.074;2022-07-23T05:59:02;23.20;99.90
5560;DHT22;2803;47.916;8.074;2022-07-23T06:01:28;23.30;99.90
5560;DHT22;2803;47.916;8.074;2022-07-23T06:03:55;23.40;99.90
5560;DHT22;2803;47.916;8.074;2022-07-23T06:06:21;23.60;99.90
5560;DHT22;2803;47.916;8.074;2022-07-23T06:08:48;23.70;99.90
5560;DHT22;2803;47.916;8.074;2022-07-23T06:11:14;23.70;99.90
5560;DHT22;2803;47.916;8.074;2022-07-23T06:13:42;23.90;99.90
5560;DHT22;2803;47.916;8.074;2022-07-23T06:16:09;24.00;99.90
5560;DHT22;2803;47.916;8.074;2022-07-23T06:18:35;24.00;99.90
5560;DHT22;2803;47.916;8.074;2022-07-23T06:21:02;24.00;99.90
5560;DHT22;2803;47.916;8.074;2022-07-23T06:23:29;23.90;99.90
5560;DHT22;2803;47.916;8.074;2022-07-23T06:25:55;23.90;99.90
5560;DHT22;2803;47.916;8.074;2022-07-23T06:28:22;23.90;99.90
5560;DHT22;2803;47.916;8.074;2022-07-23T06:30:50;24.00;99.90
5560;DHT22;2803;47.916;8.074;2022-07-23T06:33:16;24.00;99.90
5560;DHT22;2803;47.916;8.074;2022-07-23T06:35:43;24.20;99.90
5560;DHT22;2803;47.916;8.074;2022-07-23T06:38:10;24.20;99.90
5560;DHT22;2803;47.916;8.074;2022-07-23T06:40:36;24.30;99.90
5560;DHT22;2803;47.916;8.074;2022-07-23T06:43:03;24.40;99.90
5560;DHT22;2803;47.916;8.074;2022-07-23T06:45:29;24.50;99.90
5560;DHT22;2803;47.916;8.074;2022-07-23T06:47:57;24.60;99.90
5560;DHT22;2803;47.916;8.074;2022-07-23T06:50:24;24.70;99.90
5560;DHT22;2803;47.916;8.074;2022-07-23T06:52:51;24.80;99.90
5560;DHT22;2803;47.916;8.074;2022-07-23T06:55:17;24.90;99.90
5560;DHT22;2803;47.916;8.074;2022-07-23T06:57:44;24.90;99.90
5560;DHT22;2803;47.916;8.074;2022-07-23T07:00:11;25.00;99.90
5560;DHT22;2803;47.916;8.074;2022-07-23T07:02:38;25.20;99.90
5560;DHT22;2803;47.916;8.074;2022-07-23T07:05:06;25.30;99.90
5560;DHT22;2803;47.916;8.074;2022-07-23T07:07:33;25.30;99.90
5560;DHT22;2803;47.916;8.074;2022-07-23T07:10:00;25.50;99.90
5560;DHT22;2803;47.916;8.074;2022-07-23T07:12:26;25.50;99.90
5560;DHT22;2803;47.916;8.074;2022-07-23T07:14:53;25.60;99.90
5560;DHT22;2803;47.916;8.074;2022-07-23T07:17:19;25.70;99.90
5560;DHT22;2803;47.916;8.074;2022-07-23T07:19:46;25.80;99.90
5560;DHT22;2803;47.916;8.074;2022-07-23T07:22:14;25.90;99.90
5560;DHT22;2803;47.916;8.074;2022-07-23T07:24:41;25.90;99.90
5560;DHT22;2803;47.916;8.074;2022-07-23T07:27:07;25.90;99.90
5560;DHT22;2803;47.916;8.074;2022-07-23T07:29:34;26.00;99.90
5560;DHT22;2803;47.916;8.074;2022-07-23T07:32:00;26.00;99.90
5560;DHT22;2803;47.916;8.074;2022-07-23T07:34:27;26.30;99.90
5560;DHT22;2803;47.916;8.074;2022-07-23T07:36:54;26.30;99.90
5560;DHT22;2803;47.916;8.074;2022-07-23T07:39:21;26.10;99.90
5560;DHT22;2803;47.916;8.074;2022-07-23T07:41:49;26.00;99.90
5560;DHT22;2803;47.916;8.074;2022-07-23T07:44:16;25.90;99.90
5560;DHT22;2803;47.916;8.074;2022-07-23T07:46:42;25.90;99.90
5560;DHT22;2803;47.916;8.074;2022-07-23T07:49:09;26.00;99.90
5560;DHT22;2803;47.916;8.074;2022-07-23T07:51:36;26.00;99.90
5560;DHT22;2803;47.916;8.074;2022-07-23T07:54:02;25.80;99.90
5560;DHT22;2803;47.916;8.074;2022-07-23T07:56:30;26.10;99.90
5560;DHT22;2803;47.916;8.074;2022-07-23T07:58:57;26.10;99.90
5560;DHT22;2803;47.916;8.074;2022-07-23T08:01:23;26.10;99.90
5560;DHT22;2803;47.916;8.074;2022-07-23T08:03:50;26.20;99.90
5560;DHT22;2803;47.916;8.074;2022-07-23T08:06:17;26.20;99.90
5560;DHT22;2803;47.916;8.074;2022-07-23T08:08:43;25.90;99.90
5560;DHT22;2803;47.916;8.074;2022-07-23T08:11:10;26.00;99.90
5560;DHT22;2803;47.916;8.074;2022-07-23T08:13:38;26.10;99.90
5560;DHT22;2803;47.916;8.074;2022-07-23T08:16:05;26.10;99.90
5560;DHT22;2803;47.916;8.074;2022-07-23T08:18:31;25.80;99.90
5560;DHT22;2803;47.916;8.074;2022-07-23T08:20:58;25.80;99.90
5560;DHT22;2803;47.916;8.074;2022-07-23T08:23:24;26.00;99.90
5560;DHT22;2803;47.916;8.074;2022-07-23T08:25:52;26.30;99.90
5560;DHT22;2803;47.916;8.074;2022-07-23T08:28:19;25.90;99.90
5560;DHT22;2803;47.916;8.074;2022-07-23T08:30:47;25.80;99.90
5560;DHT22;2803;47.916;8.074;2022-07-23T08:33:15;26.00;99.90
5560;DHT22;2803;47.916;8.074;2022-07-23T08:35:43;26.00;99.90
5560;DHT22;2803;47.916;8.074;2022-07-23T08:38:13;26.00;99.90
5560;DHT22;2803;47.916;8.074;2022-07-23T08:40:42;26.20;99.90
5560;DHT22;2803;47.916;8.074;2022-07-23T08:43:11;26.30;99.90
5560;DHT22;2803;47.916;8.074;2022-07-23T08:45:39;26.50;99.90
5560;DHT22;2803;47.916;8.074;2022-07-23T08:48:11;26.70;99.90
5560;DHT22;2803;47.916;8.074;2022-07-23T08:50:42;26.00;99.90
5560;DHT22;2803;47.916;8.074;2022-07-23T08:53:09;25.70;99.90
5560;DHT22;2803;47.916;8.074;2022-07-23T08:55:36;25.70;99.90
5560;DHT22;2803;47.916;8.074;2022-07-23T08:58:03;25.50;99.90
5560;DHT22;2803;47.916;8.074;2022-07-23T09:00:31;25.40;99.90
5560;DHT22;2803;47.916;8.074;2022-07-23T09:02:58;25.60;99.90
5560;DHT22;2803;47.916;8.074;2022-07-23T09:05:26;26.00;99.90
5560;DHT22;2803;47.916;8.074;2022-07-23T09:08:09;25.80;99.90
5560;DHT22;2803;47.916;8.074;2022-07-23T09:10:44;26.00;99.90
5560;DHT22;2803;47.916;8.074;2022-07-23T09:13:27;26.10;99.90
5560;DHT22;2803;47.916;8.074;2022-07-23T09:15:56;26.20;99.90
5560;DHT22;2803;47.916;8.074;2022-07-23T09:18:32;26.40;99.90
5560;DHT22;2803;47.916;8.074;2022-07-23T09:21:14;26.50;99.90
5560;DHT22;2803;47.916;8.074;2022-07-23T09:23:43;26.70;99.90
5560;DHT22;2803;47.916;8.074;2022-07-23T09:26:20;26.40;99.90
5560;DHT22;2803;47.916;8.074;2022-07-23T09:28:51;26.70;99.90
5560;DHT22;2803;47.916;8.074;2022-07-23T09:31:19;26.70;99.90
5560;DHT22;2803;47.916;8.074;2022-07-23T09:33:45;27.10;99.90
5560;DHT22;2803;47.916;8.074;2022-07-23T09:36:13;27.10;99.90
5560;DHT22;2803;47.916;8.074;2022-07-23T09:38:48;26.70;99.90
5560;DHT22;2803;47.916;8.074;2022-07-23T09:41:15;27.00;99.90
5560;DHT22;2803;47.916;8.074;2022-07-23T09:43:42;27.00;99.90
5560;DHT22;2803;47.916;8.074;2022-07-23T09:46:18;27.10;99.90
5560;DHT22;2803;47.916;8.074;2022-07-23T09:48:45;27.20;99.90
5560;DHT22;2803;47.916;8.074;2022-07-23T09:51:13;27.20;99.90
5560;DHT22;2803;47.916;8.074;2022-07-23T09:53:41;27.20;99.90
5560;DHT22;2803;47.916;8.074;2022-07-23T09:56:08;27.30;99.90
5560;DHT22;2803;47.916;8.074;2022-07-23T09:58:40;27.50;99.90
5560;DHT22;2803;47.916;8.074;2022-07-23T10:01:12;27.50;99.90
5560;DHT22;2803;47.916;8.074;2022-07-23T10:03:40;27.30;99.90
5560;DHT22;2803;47.916;8.074;2022-07-23T10:06:08;27.80;99.90
5560;DHT22;2803;47.916;8.074;2022-07-23T10:08:38;28.20;99.90
5560;DHT22;2803;47.916;8.074;2022-07-23T10:11:05;28.30;99.90
5560;DHT22;2803;47.916;8.074;2022-07-23T10:13:32;28.20;99.90
5560;DHT22;2803;47.916;8.074;2022-07-23T10:16:13;28.20;99.90
5560;DHT22;2803;47.916;8.074;2022-07-23T10:18:40;28.00;99.90
5560;DHT22;2803;47.916;8.074;2022-07-23T10:21:08;28.00;99.90
5560;DHT22;2803;47.916;8.074;2022-07-23T10:23:42;27.80;99.90
5560;DHT22;2803;47.916;8.074;2022-07-23T10:26:21;27.40;99.90
5560;DHT22;2803;47.916;8.074;2022-07-23T10:29:02;27.60;99.90
5560;DHT22;2803;47.916;8.074;2022-07-23T10:31:41;27.50;99.90
5560;DHT22;2803;47.916;8.074;2022-07-23T10:34:15;27.40;99.90
5560;DHT22;2803;47.916;8.074;2022-07-23T10:36:47;27.20;99.90
5560;DHT22;2803;47.916;8.074;2022-07-23T10:39:23;27.10;99.90
5560;DHT22;2803;47.916;8.074;2022-07-23T10:41:51;26.90;99.90
5560;DHT22;2803;47.916;8.074;2022-07-23T10:44:19;27.00;99.90
5560;DHT22;2803;47.916;8.074;2022-07-23T10:46:54;27.30;99.90
5560;DHT22;2803;47.916;8.074;2022-07-23T10:49:29;27.10;99.90
5560;DHT22;2803;47.916;8.074;2022-07-23T10:52:19;27.50;99.90
5560;DHT22;2803;47.916;8.074;2022-07-23T10:54:49;27.50;99.90
5560;DHT22;2803;47.916;8.074;2022-07-23T10:57:17;27.60;99.90
5560;DHT22;2803;47.916;8.074;2022-07-23T11:02:42;27.50;99.90
5560;DHT22;2803;47.916;8.074;2022-07-23T11:05:12;27.60;99.90
5560;DHT22;2803;47.916;8.074;2022-07-23T11:10:39;27.60;99.90
5560;DHT22;2803;47.916;8.074;2022-07-23T11:13:29;27.60;99.90
5560;DHT22;2803;47.916;8.074;2022-07-23T11:16:07;27.50;99.90
5560;DHT22;2803;47.916;8.074;2022-07-23T11:18:53;27.50;99.90
5560;DHT22;2803;47.916;8.074;2022-07-23T11:24:19;27.80;99.90
5560;DHT22;2803;47.916;8.074;2022-07-23T11:26:52;28.10;99.90
5560;DHT22;2803;47.916;8.074;2022-07-23T11:32:22;28.60;99.90
5560;DHT22;2803;47.916;8.074;2022-07-23T11:34:50;28.50;99.90
5560;DHT22;2803;47.916;8.074;2022-07-23T11:37:29;28.40;99.90
5560;DHT22;2803;47.916;8.074;2022-07-23T11:39:58;28.80;99.90
5560;DHT22;2803;47.916;8.074;2022-07-23T11:42:26;29.30;99.90
5560;DHT22;2803;47.916;8.074;2022-07-23T11:44:52;29.30;99.90
5560;DHT22;2803;47.916;8.074;2022-07-23T11:47:22;29.20;99.90
5560;DHT22;2803;47.916;8.074;2022-07-23T11:49:53;29.30;99.90
5560;DHT22;2803;47.916;8.074;2022-07-23T11:52:20;29.60;99.80
5560;DHT22;2803;47.916;8.074;2022-07-23T11:54:49;29.40;99.80
5560;DHT22;2803;47.916;8.074;2022-07-23T11:57:17;29.00;99.80
5560;DHT22;2803;47.916;8.074;2022-07-23T11:59:47;29.30;99.40
5560;DHT22;2803;47.916;8.074;2022-07-23T12:02:15;29.70;98.70
5560;DHT22;2803;47.916;8.074;2022-07-23T12:04:44;29.70;98.60
5560;DHT22;2803;47.916;8.074;2022-07-23T12:07:27;30.10;98.30
5560;DHT22;2803;47.916;8.074;2022-07-23T12:09:56;30.20;96.40
5560;DHT22;2803;47.916;8.074;2022-07-23T12:12:23;30.20;97.20
5560;DHT22;2803;47.916;8.074;2022-07-23T12:14:53;30.30;96.50
5560;DHT22;2803;47.916;8.074;2022-07-23T12:17:24;30.40;96.60
5560;DHT22;2803;47.916;8.074;2022-07-23T12:19:53;30.40;96.20
5560;DHT22;2803;47.916;8.074;2022-07-23T12:22:21;30.20;96.00
5560;DHT22;2803;47.916;8.074;2022-07-23T12:25:03;30.40;95.90
5560;DHT22;2803;47.916;8.074;2022-07-23T12:27:30;30.70;95.80
5560;DHT22;2803;47.916;8.074;2022-07-23T12:29:58;30.80;94.90
5560;DHT22;2803;47.916;8.074;2022-07-23T12:32:28;30.60;94.80
5560;DHT22;2803;47.916;8.074;2022-07-23T12:35:04;30.80;94.90
5560;DHT22;2803;47.916;8.074;2022-07-23T12:37:33;31.30;94.50
5560;DHT22;2803;47.916;8.074;2022-07-23T12:40:19;31.70;93.40
5560;DHT22;2803;47.916;8.074;2022-07-23T12:42:47;31.60;92.90
5560;DHT22;2803;47.916;8.074;2022-07-23T12:45:16;31.00;93.60
5560;DHT22;2803;47.916;8.074;2022-07-23T12:47:59;31.00;93.60
5560;DHT22;2803;47.916;8.074;2022-07-23T12:50:37;30.80;93.60
5560;DHT22;2803;47.916;8.074;2022-07-23T12:53:06;31.20;94.20
5560;DHT22;2803;47.916;8.074;2022-07-23T12:55:34;30.80;93.10
5560;DHT22;2803;47.916;8.074;2022-07-23T12:58:10;30.40;93.30
5560;DHT22;2803;47.916;8.074;2022-07-23T13:00:55;30.50;94.00
5560;DHT22;2803;47.916;8.074;2022-07-23T13:03:24;31.40;94.10
5560;DHT22;2803;47.916;8.074;2022-07-23T13:05:52;32.40;91.70
5560;DHT22;2803;47.916;8.074;2022-07-23T13:08:19;32.20;90.80
5560;DHT22;2803;47.916;8.074;2022-07-23T13:10:45;31.90;90.50
5560;DHT22;2803;47.916;8.074;2022-07-23T13:13:14;31.90;92.10
5560;DHT22;2803;47.916;8.074;2022-07-23T13:15:41;31.30;91.40
5560;DHT22;2803;47.916;8.074;2022-07-23T13:18:09;31.20;90.90
5560;DHT22;2803;47.916;8.074;2022-07-23T13:20:36;31.40;90.70
5560;DHT22;2803;47.916;8.074;2022-07-23T13:23:04;31.50;90.40
5560;DHT22;2803;47.916;8.074;2022-07-23T13:25:30;31.60;89.80
5560;DHT22;2803;47.916;8.074;2022-07-23T13:27:57;31.40;90.30
5560;DHT22;2803;47.916;8.074;2022-07-23T13:30:24;31.50;91.00
5560;DHT22;2803;47.916;8.074;2022-07-23T13:32:50;31.90;90.70
5560;DHT22;2803;47.916;8.074;2022-07-23T13:35:18;32.40;87.70
5560;DHT22;2803;47.916;8.074;2022-07-23T13:37:45;33.20;87.90
5560;DHT22;2803;47.916;8.074;2022-07-23T13:40:12;33.10;86.50
5560;DHT22;2803;47.916;8.074;2022-07-23T13:42:39;33.40;84.50
5560;DHT22;2803;47.916;8.074;2022-07-23T13:45:06;33.60;84.60
5560;DHT22;2803;47.916;8.074;2022-07-23T13:47:33;33.40;81.60
5560;DHT22;2803;47.916;8.074;2022-07-23T13:50:00;33.30;83.30
5560;DHT22;2803;47.916;8.074;2022-07-23T13:52:28;33.40;84.50
5560;DHT22;2803;47.916;8.074;2022-07-23T13:54:54;32.70;81.90
5560;DHT22;2803;47.916;8.074;2022-07-23T13:57:21;32.20;84.10
5560;DHT22;2803;47.916;8.074;2022-07-23T13:59:48;32.00;86.50
5560;DHT22;2803;47.916;8.074;2022-07-23T14:02:16;31.80;88.10
5560;DHT22;2803;47.916;8.074;2022-07-23T14:04:43;30.90;89.50
5560;DHT22;2803;47.916;8.074;2022-07-23T14:07:10;30.70;90.20
5560;DHT22;2803;47.916;8.074;2022-07-23T14:09:38;30.20;90.00
5560;DHT22;2803;47.916;8.074;2022-07-23T14:12:05;30.10;90.30
5560;DHT22;2803;47.916;8.074;2022-07-23T14:14:32;30.20;91.00
5560;DHT22;2803;47.916;8.074;2022-07-23T14:16:59;29.80;90.90
5560;DHT22;2803;47.916;8.074;2022-07-23T14:19:26;29.00;90.90
5560;DHT22;2803;47.916;8.074;2022-07-23T14:21:53;29.10;91.20
5560;DHT22;2803;47.916;8.074;2022-07-23T14:24:19;29.30;90.90
5560;DHT22;2803;47.916;8.074;2022-07-23T14:26:47;29.50;90.60
5560;DHT22;2803;47.916;8.074;2022-07-23T14:29:14;30.20;90.60
5560;DHT22;2803;47.916;8.074;2022-07-23T14:31:40;31.00;87.80
5560;DHT22;2803;47.916;8.074;2022-07-23T14:34:07;31.20;88.20
5560;DHT22;2803;47.916;8.074;2022-07-23T14:36:34;31.60;87.70
5560;DHT22;2803;47.916;8.074;2022-07-23T14:39:00;31.30;87.70
5560;DHT22;2803;47.916;8.074;2022-07-23T14:41:27;30.60;87.40
5560;DHT22;2803;47.916;8.074;2022-07-23T14:43:55;30.60;88.60
5560;DHT22;2803;47.916;8.074;2022-07-23T14:46:22;30.20;89.70
5560;DHT22;2803;47.916;8.074;2022-07-23T14:48:49;29.90;90.80
5560;DHT22;2803;47.916;8.074;2022-07-23T14:51:15;29.70;91.00
5560;DHT22;2803;47.916;8.074;2022-07-23T14:53:42;29.40;91.60
5560;DHT22;2803;47.916;8.074;2022-07-23T14:56:08;29.80;90.90
5560;DHT22;2803;47.916;8.074;2022-07-23T14:58:35;29.50;90.90
5560;DHT22;2803;47.916;8.074;2022-07-23T15:01:03;29.40;89.70
5560;DHT22;2803;47.916;8.074;2022-07-23T15:03:30;29.10;90.90
5560;DHT22;2803;47.916;8.074;2022-07-23T15:05:56;29.10;91.20
5560;DHT22;2803;47.916;8.074;2022-07-23T15:08:23;29.00;91.50
5560;DHT22;2803;47.916;8.074;2022-07-23T15:10:50;29.10;91.50
5560;DHT22;2803;47.916;8.074;2022-07-23T15:13:17;29.40;91.50
5560;DHT22;2803;47.916;8.074;2022-07-23T15:15:44;29.70;91.50
5560;DHT22;2803;47.916;8.074;2022-07-23T15:18:12;30.10;90.60
5560;DHT22;2803;47.916;8.074;2022-07-23T15:20:39;29.90;89.80
5560;DHT22;2803;47.916;8.074;2022-07-23T15:23:06;29.90;90.00
5560;DHT22;2803;47.916;8.074;2022-07-23T15:25:33;29.90;90.70
5560;DHT22;2803;47.916;8.074;2022-07-23T15:28:00;29.30;91.40
5560;DHT22;2803;47.916;8.074;2022-07-23T15:30:27;29.50;92.10
5560;DHT22;2803;47.916;8.074;2022-07-23T15:32:54;29.30;91.70
5560;DHT22;2803;47.916;8.074;2022-07-23T15:35:24;29.10;92.50
5560;DHT22;2803;47.916;8.074;2022-07-23T15:37:51;29.60;92.00
5560;DHT22;2803;47.916;8.074;2022-07-23T15:40:17;29.60;91.80
5560;DHT22;2803;47.916;8.074;2022-07-23T15:42:44;29.30;91.40
5560;DHT22;2803;47.916;8.074;2022-07-23T15:45:10;29.50;92.30
5560;DHT22;2803;47.916;8.074;2022-07-23T15:47:38;29.70;92.00
5560;DHT22;2803;47.916;8.074;2022-07-23T15:50:06;29.90;91.70
5560;DHT22;2803;47.916;8.074;2022-07-23T15:52:34;30.00;92.50
5560;DHT22;2803;47.916;8.074;2022-07-23T15:55:00;29.90;91.50
5560;DHT22;2803;47.916;8.074;2022-07-23T15:57:27;29.30;92.30
5560;DHT22;2803;47.916;8.074;2022-07-23T15:59:54;28.90;92.40
5560;DHT22;2803;47.916;8.074;2022-07-23T16:02:21;28.60;92.60
5560;DHT22;2803;47.916;8.074;2022-07-23T16:04:48;28.70;92.70
5560;DHT22;2803;47.916;8.074;2022-07-23T16:07:16;28.10;93.80
5560;DHT22;2803;47.916;8.074;2022-07-23T16:09:44;28.20;94.20
5560;DHT22;2803;47.916;8.074;2022-07-23T16:12:10;27.90;94.00
5560;DHT22;2803;47.916;8.074;2022-07-23T16:14:37;28.30;94.10
5560;DHT22;2803;47.916;8.074;2022-07-23T16:17:04;28.40;94.30
5560;DHT22;2803;47.916;8.074;2022-07-23T16:19:31;28.40;94.10